createdAt,value
2022-12-28T00:02:23.903Z,3.17
2022-12-28T00:04:52.206Z,3.67
2022-12-28T00:07:20.503Z,3.80
2022-12-28T00:09:48.782Z,4.30
2022-12-28T00:12:17.150Z,3.78
2022-12-28T00:14:46.217Z,3.45
2022-12-28T00:17:16.114Z,3.30
2022-12-28T00:19:44.262Z,3.35
2022-12-28T00:22:12.578Z,3.58
2022-12-28T00:24:41.072Z,3.22
2022-12-28T00:27:09.287Z,3.50
2022-12-28T00:29:37.685Z,3.33
2022-12-28T00:32:06.557Z,3.40
2022-12-28T00:34:36.246Z,3.72
2022-12-28T00:37:08.349Z,3.37
2022-12-28T00:39:41.527Z,2.90
2022-12-28T00:42:09.822Z,3.20
2022-12-28T00:44:38.227Z,3.25
2022-12-28T00:47:06.787Z,2.78
2022-12-28T00:49:36.461Z,3.47
2022-12-28T00:52:04.895Z,3.45
2022-12-28T00:54:33.254Z,3.45
2022-12-28T00:57:01.550Z,3.28
2022-12-28T00:59:29.915Z,2.58
2022-12-28T01:01:58.430Z,3.07
2022-12-28T01:04:26.882Z,3.22
2022-12-28T01:06:56.596Z,2.85
2022-12-28T01:09:24.935Z,4.17
2022-12-28T01:11:53.302Z,3.80
2022-12-28T01:14:21.652Z,2.60
2022-12-28T01:16:49.986Z,3.33
2022-12-28T01:19:23.165Z,3.30
2022-12-28T01:21:52.575Z,2.58
2022-12-28T01:24:22.988Z,2.72
2022-12-28T01:26:51.287Z,3.00
2022-12-28T01:29:19.655Z,2.97
2022-12-28T01:31:48.365Z,3.73
2022-12-28T01:34:16.984Z,3.00
2022-12-28T01:36:45.372Z,3.53
2022-12-28T01:39:14.019Z,3.92
2022-12-28T01:41:44.776Z,3.87
2022-12-28T01:44:44.629Z,3.50
2022-12-28T01:47:18.895Z,3.03
2022-12-28T01:49:53.098Z,3.00
2022-12-28T01:52:25.765Z,3.50
2022-12-28T01:54:57.544Z,4.28
2022-12-28T01:57:31.273Z,3.63
2022-12-28T02:00:05.394Z,4.27
2022-12-28T02:02:34.504Z,3.85
2022-12-28T02:05:03.690Z,4.03
2022-12-28T02:07:41.474Z,3.63
2022-12-28T02:10:43.136Z,4.03
2022-12-28T02:13:03.263Z,3.45
2022-12-28T02:15:31.595Z,4.23
2022-12-28T02:18:00.404Z,4.20
2022-12-28T02:20:38.146Z,4.60
2022-12-28T02:23:32.469Z,3.30
2022-12-28T02:26:32.089Z,4.07
2022-12-28T02:29:23.806Z,3.57
2022-12-28T02:31:59.347Z,4.43
2022-12-28T02:34:34.848Z,3.20
2022-12-28T02:37:08.452Z,3.27
2022-12-28T02:39:43.043Z,3.97
2022-12-28T02:42:12.713Z,2.50
2022-12-28T02:44:59.765Z,2.67
2022-12-28T02:47:45.146Z,2.70
2022-12-28T02:50:16.719Z,2.83
2022-12-28T02:53:19.013Z,2.43
2022-12-28T02:56:07.638Z,2.83
2022-12-28T02:58:58.357Z,3.00
2022-12-28T03:01:48.491Z,2.73
2022-12-28T03:04:25.357Z,2.57
2022-12-28T03:07:17.515Z,3.40
2022-12-28T03:09:51.559Z,2.67
2022-12-28T03:12:26.637Z,2.80
2022-12-28T03:14:58.554Z,3.40
2022-12-28T03:17:47.505Z,2.53
2022-12-28T03:20:42.088Z,3.07
2022-12-28T03:23:32.203Z,3.37
2022-12-28T03:26:19.912Z,2.77
2022-12-28T03:29:06.253Z,2.93
2022-12-28T03:31:36.117Z,2.83
2022-12-28T03:34:09.340Z,3.15
2022-12-28T03:36:46.038Z,3.83
2022-12-28T03:39:24.102Z,3.42
2022-12-28T03:42:14.161Z,3.50
2022-12-28T03:44:47.106Z,3.10
2022-12-28T03:47:16.393Z,3.17
2022-12-28T03:49:46.315Z,2.55
2022-12-28T03:52:14.971Z,3.25
2022-12-28T03:54:43.217Z,2.80
2022-12-28T03:57:11.655Z,2.90
2022-12-28T03:59:39.884Z,3.28
2022-12-28T04:02:08.442Z,3.08
2022-12-28T04:04:36.791Z,3.10
2022-12-28T04:07:06.547Z,2.23
2022-12-28T04:09:35.035Z,2.53
2022-12-28T04:12:03.345Z,2.20
2022-12-28T04:14:31.673Z,2.85
2022-12-28T04:16:59.904Z,3.00
2022-12-28T04:19:28.148Z,2.95
2022-12-28T04:21:56.409Z,2.58
2022-12-28T04:24:26.090Z,2.53
2022-12-28T04:26:54.300Z,2.83
2022-12-28T04:29:22.655Z,2.40
2022-12-28T04:31:51.056Z,2.23
2022-12-28T04:34:19.542Z,3.03
2022-12-28T04:36:48.437Z,3.00
2022-12-28T04:39:16.714Z,2.80
2022-12-28T04:41:46.536Z,3.23
2022-12-28T04:44:14.704Z,2.30
2022-12-28T04:46:43.010Z,2.87
2022-12-28T04:49:11.425Z,3.40
2022-12-28T04:51:39.718Z,2.73
2022-12-28T04:54:07.957Z,3.20
2022-12-28T04:56:36.307Z,2.77
2022-12-28T04:59:06.116Z,3.30
2022-12-28T05:01:34.582Z,2.47
2022-12-28T05:04:02.912Z,2.70
2022-12-28T05:06:31.081Z,2.57
2022-12-28T05:08:59.617Z,3.00
2022-12-28T05:11:29.728Z,2.53
2022-12-28T05:13:58.246Z,2.23
2022-12-28T05:16:29.893Z,2.80
2022-12-28T05:18:58.823Z,2.30
2022-12-28T05:21:28.652Z,2.20
2022-12-28T05:23:57.682Z,2.20
2022-12-28T05:26:27.930Z,1.97
2022-12-28T05:28:56.977Z,2.30
2022-12-28T05:31:25.794Z,2.90
2022-12-28T05:33:56.221Z,2.70
2022-12-28T05:36:26.496Z,2.47
2022-12-28T05:38:55.902Z,2.47
2022-12-28T05:41:26.889Z,3.10
2022-12-28T05:43:56.309Z,2.80
2022-12-28T05:46:28.674Z,2.50
2022-12-28T05:48:58.893Z,2.67
2022-12-28T05:51:29.721Z,5.13
2022-12-28T05:53:59.483Z,4.10
2022-12-28T05:56:29.406Z,3.80
2022-12-28T05:58:59.595Z,2.93
2022-12-28T06:01:30.411Z,2.37
2022-12-28T06:04:04.253Z,2.63
2022-12-28T06:06:33.675Z,2.20
2022-12-28T06:09:02.758Z,2.50
2022-12-28T06:11:31.598Z,2.90
2022-12-28T06:14:00.767Z,2.90
2022-12-28T06:16:31.519Z,2.60
2022-12-28T06:19:04.725Z,1.80
2022-12-28T06:21:34.780Z,2.30
2022-12-28T06:24:03.752Z,2.40
2022-12-28T06:26:33.981Z,2.20
2022-12-28T06:29:03.381Z,2.87
2022-12-28T06:31:33.504Z,1.93
2022-12-28T06:34:04.742Z,2.80
2022-12-28T06:36:35.092Z,3.07
2022-12-28T06:39:05.227Z,2.80
2022-12-28T06:41:33.508Z,2.30
2022-12-28T06:44:01.879Z,2.10
2022-12-28T06:46:31.475Z,3.13
2022-12-28T06:48:59.974Z,2.90
2022-12-28T06:51:31.901Z,3.63
2022-12-28T06:54:00.196Z,4.13
2022-12-28T06:56:30.943Z,3.13
2022-12-28T06:59:03.213Z,3.30
2022-12-28T07:01:34.257Z,2.97
2022-12-28T07:04:04.030Z,3.00
2022-12-28T07:06:37.855Z,2.37
2022-12-28T07:09:08.597Z,3.73
2022-12-28T07:11:37.299Z,3.40
2022-12-28T07:14:05.993Z,2.47
2022-12-28T07:19:02.152Z,3.03
2022-12-28T07:21:32.665Z,3.33
2022-12-28T07:24:02.999Z,2.57
2022-12-28T07:26:33.236Z,2.37
2022-12-28T07:29:03.642Z,3.27
2022-12-28T07:31:39.749Z,2.83
2022-12-28T07:34:12.852Z,2.03
2022-12-28T07:36:41.011Z,3.10
2022-12-28T07:39:10.765Z,3.00
2022-12-28T07:41:39.413Z,2.50
2022-12-28T07:44:07.950Z,3.00
2022-12-28T07:46:38.449Z,3.23
2022-12-28T07:49:07.195Z,3.53
2022-12-28T07:51:36.969Z,4.33
2022-12-28T07:54:05.536Z,3.30
2022-12-28T07:59:04.729Z,4.13
2022-12-28T08:01:35.309Z,4.60
2022-12-28T08:04:06.960Z,4.03
2022-12-28T08:06:37.251Z,3.95
2022-12-28T08:09:07.405Z,3.73
2022-12-28T08:11:39.282Z,3.70
2022-12-28T08:14:09.152Z,3.67
2022-12-28T08:16:39.969Z,4.22
2022-12-28T08:19:10.293Z,4.05
2022-12-28T08:22:12.800Z,4.18
2022-12-28T08:24:59.267Z,4.18
2022-12-28T08:27:38.841Z,5.00
2022-12-28T08:30:22.114Z,5.40
2022-12-28T08:32:55.812Z,5.72
2022-12-28T08:35:27.984Z,5.70
2022-12-28T08:37:56.891Z,7.15
2022-12-28T08:40:29.908Z,6.13
2022-12-28T08:43:00.912Z,5.18
2022-12-28T08:45:29.393Z,6.18
2022-12-28T08:47:58.194Z,6.10
2022-12-28T08:50:31.419Z,5.60
2022-12-28T08:53:11.421Z,5.85
2022-12-28T08:55:41.088Z,5.97
2022-12-28T08:58:18.321Z,6.38
2022-12-28T09:00:50.792Z,6.00
2022-12-28T09:03:21.380Z,6.43
2022-12-28T09:05:54.410Z,6.05
2022-12-28T09:08:24.722Z,5.95
2022-12-28T09:10:54.866Z,6.65
2022-12-28T09:13:33.598Z,6.70
2022-12-28T09:16:39.372Z,4.80
2022-12-28T09:22:54.449Z,6.28
2022-12-28T09:28:56.978Z,5.55
2022-12-28T09:31:41.071Z,5.75
2022-12-28T09:34:36.095Z,5.55
2022-12-28T09:37:10.719Z,6.40
2022-12-28T09:39:48.028Z,6.50
2022-12-28T09:42:26.941Z,5.35
2022-12-28T09:45:20.409Z,5.78
2022-12-28T09:47:55.959Z,6.18
2022-12-28T09:50:30.550Z,6.15
2022-12-28T09:53:34.904Z,5.47
2022-12-28T09:56:07.476Z,5.13
2022-12-28T09:58:43.947Z,6.38
2022-12-28T10:01:20.693Z,5.60
2022-12-28T10:03:50.664Z,5.10
2022-12-28T10:06:23.765Z,5.55
2022-12-28T10:08:55.564Z,5.35
2022-12-28T10:11:27.492Z,6.15
2022-12-28T10:14:05.456Z,5.70
2022-12-28T10:17:01.629Z,6.30
2022-12-28T10:19:32.013Z,5.65
2022-12-28T10:22:11.348Z,5.60
2022-12-28T10:24:42.597Z,5.47
2022-12-28T10:27:21.016Z,5.00
2022-12-28T10:29:58.446Z,5.20
2022-12-28T10:32:28.315Z,5.55
2022-12-28T10:35:00.485Z,5.38
2022-12-28T10:37:36.595Z,5.45
2022-12-28T10:40:25.812Z,5.95
2022-12-28T10:43:03.062Z,5.35
2022-12-28T10:45:40.185Z,5.95
2022-12-28T10:48:18.255Z,4.65
2022-12-28T10:50:57.537Z,6.03
2022-12-28T10:53:34.500Z,6.18
2022-12-28T10:56:20.704Z,6.00
2022-12-28T10:58:54.471Z,5.50
2022-12-28T11:01:27.798Z,5.78
2022-12-28T11:04:05.892Z,5.72
2022-12-28T11:06:35.651Z,5.85
2022-12-28T11:09:28.171Z,5.60
2022-12-28T11:12:17.990Z,6.32
2022-12-28T11:14:50.928Z,5.32
2022-12-28T11:17:22.484Z,5.82
2022-12-28T11:19:54.653Z,5.50
2022-12-28T11:22:25.859Z,5.40
2022-12-28T11:24:55.642Z,5.38
2022-12-28T11:27:38.946Z,5.90
2022-12-28T11:30:17.460Z,6.10
2022-12-28T11:33:03.958Z,4.68
2022-12-28T11:36:11.148Z,4.43
2022-12-28T11:38:41.867Z,6.40
2022-12-28T11:41:12.421Z,6.60
2022-12-28T11:43:49.934Z,6.47
2022-12-28T11:46:57.989Z,6.35
2022-12-28T11:49:30.660Z,6.22
2022-12-28T11:52:46.064Z,6.03
2022-12-28T11:55:48.862Z,5.43
2022-12-28T11:58:52.423Z,6.22
2022-12-28T12:01:46.157Z,6.57
2022-12-28T12:04:33.926Z,5.88
2022-12-28T12:07:31.628Z,5.22
2022-12-28T12:10:36.054Z,4.40
2022-12-28T12:13:44.521Z,4.75
2022-12-28T12:16:24.228Z,5.53
2022-12-28T12:18:55.589Z,4.72
2022-12-28T12:21:31.775Z,4.88
2022-12-28T12:24:11.357Z,4.18
2022-12-28T12:26:46.543Z,5.07
2022-12-28T12:29:17.989Z,5.15
2022-12-28T12:31:49.958Z,4.90
2022-12-28T12:34:27.775Z,6.15
2022-12-28T12:37:32.763Z,4.78
2022-12-28T12:40:17.066Z,4.63
2022-12-28T12:43:10.489Z,6.78
2022-12-28T12:46:01.103Z,5.32
2022-12-28T12:48:51.675Z,5.32
2022-12-28T12:51:37.887Z,5.57
2022-12-28T12:54:25.622Z,4.85
2022-12-28T12:57:04.467Z,5.13
2022-12-28T12:59:57.180Z,5.45
2022-12-28T13:02:46.461Z,5.63
2022-12-28T13:05:20.225Z,5.95
2022-12-28T13:07:48.677Z,4.85
2022-12-28T13:10:20.032Z,6.25
2022-12-28T13:12:48.415Z,5.25
2022-12-28T13:15:20.669Z,4.50
2022-12-28T13:18:18.039Z,5.15
2022-12-28T13:20:57.188Z,5.00
2022-12-28T13:23:27.137Z,4.43
2022-12-28T13:25:57.513Z,4.15
2022-12-28T13:28:30.119Z,4.65
2022-12-28T13:31:06.919Z,4.28
2022-12-28T13:33:35.213Z,4.07
2022-12-28T13:36:21.446Z,4.13
2022-12-28T13:39:03.099Z,3.78
2022-12-28T13:41:33.455Z,4.05
2022-12-28T13:44:27.152Z,3.70
2022-12-28T13:47:02.442Z,4.25
2022-12-28T13:49:36.994Z,4.18
2022-12-28T13:52:10.215Z,4.20
2022-12-28T13:54:39.740Z,3.78
2022-12-28T13:57:44.724Z,3.85
2022-12-28T13:59:58.198Z,4.43
2022-12-28T14:02:29.324Z,5.55
2022-12-28T14:04:57.840Z,6.25
2022-12-28T14:07:29.262Z,6.38
2022-12-28T14:09:58.244Z,9.07
2022-12-28T14:12:26.839Z,25.30
2022-12-28T14:14:55.452Z,16.20
2022-12-28T14:17:24.337Z,8.57
2022-12-28T14:19:57.742Z,7.88
2022-12-28T14:22:30.597Z,6.38
2022-12-28T14:25:10.151Z,6.22
2022-12-28T14:27:41.608Z,6.03
2022-12-28T14:30:24.191Z,6.22
2022-12-28T14:32:53.487Z,7.03
2022-12-28T14:35:26.052Z,6.80
2022-12-28T14:37:56.227Z,6.60
2022-12-28T14:40:34.965Z,6.40
2022-12-28T14:43:09.615Z,5.18
2022-12-28T14:46:06.832Z,5.63
2022-12-28T14:48:36.439Z,5.25
2022-12-28T14:51:23.950Z,6.05
2022-12-28T14:54:18.099Z,4.72
2022-12-28T14:56:49.865Z,5.38
2022-12-28T14:59:22.493Z,5.55
2022-12-28T15:01:50.820Z,5.57
2022-12-28T15:04:36.868Z,5.95
2022-12-28T15:07:07.837Z,6.70
2022-12-28T15:09:36.574Z,6.70
2022-12-28T15:12:13.376Z,6.13
2022-12-28T15:14:42.383Z,6.43
2022-12-28T15:17:11.700Z,6.07
2022-12-28T15:19:40.296Z,6.30
2022-12-28T15:22:10.425Z,6.75
2022-12-28T15:24:40.407Z,6.07
2022-12-28T15:27:09.219Z,6.65
2022-12-28T15:32:26.412Z,5.97
2022-12-28T15:34:54.635Z,6.20
2022-12-28T15:37:24.467Z,6.57
2022-12-28T15:39:52.713Z,5.25
2022-12-28T15:42:20.957Z,5.68
2022-12-28T15:44:51.182Z,6.38
2022-12-28T15:47:19.837Z,6.70
2022-12-28T15:49:48.146Z,6.05
2022-12-28T15:52:16.352Z,6.18
2022-12-28T15:54:47.478Z,6.05
2022-12-28T15:57:16.062Z,5.93
2022-12-28T15:59:44.428Z,8.15
2022-12-28T16:02:13.022Z,7.43
2022-12-28T16:04:41.510Z,7.85
2022-12-28T16:07:09.883Z,7.82
2022-12-28T16:09:38.141Z,8.30
2022-12-28T16:12:08.365Z,8.93
2022-12-28T16:14:36.554Z,9.05
2022-12-28T16:17:04.776Z,8.57
2022-12-28T16:19:32.978Z,7.78
2022-12-28T16:22:01.225Z,9.20
2022-12-28T16:24:29.924Z,9.75
2022-12-28T16:26:58.136Z,9.00
2022-12-28T16:29:28.044Z,9.02
2022-12-28T16:31:56.739Z,8.90
2022-12-28T16:34:25.043Z,10.82
2022-12-28T16:36:57.100Z,9.65
2022-12-28T16:39:25.784Z,10.32
2022-12-28T16:41:54.053Z,8.82
2022-12-28T16:44:24.188Z,10.43
2022-12-28T16:46:56.666Z,10.02
2022-12-28T16:49:25.077Z,11.32
2022-12-28T16:51:53.367Z,11.10
2022-12-28T16:54:24.061Z,12.38
2022-12-28T16:56:53.361Z,12.48
2022-12-28T16:59:24.523Z,11.52
2022-12-28T17:01:55.563Z,11.25
2022-12-28T17:04:24.063Z,10.98
2022-12-28T17:06:53.133Z,10.80
2022-12-28T17:09:21.641Z,9.02
2022-12-28T17:11:50.902Z,9.02
2022-12-28T17:14:36.488Z,10.13
2022-12-28T17:17:07.542Z,8.88
2022-12-28T17:19:36.041Z,7.82
2022-12-28T17:22:04.866Z,8.82
2022-12-28T17:24:33.232Z,9.52
2022-12-28T17:27:07.238Z,7.80
2022-12-28T17:29:37.893Z,6.07
2022-12-28T17:32:08.321Z,7.25
2022-12-28T17:34:36.707Z,8.75
2022-12-28T17:37:05.178Z,7.63
2022-12-28T17:39:39.726Z,5.88
2022-12-28T17:42:09.264Z,6.47
2022-12-28T17:44:37.438Z,6.18
2022-12-28T17:47:07.485Z,6.85
2022-12-28T17:49:35.681Z,7.85
2022-12-28T17:52:03.936Z,6.03
2022-12-28T17:54:32.265Z,6.22
2022-12-28T17:57:00.550Z,6.15
2022-12-28T17:59:28.974Z,5.85
2022-12-28T18:01:57.515Z,5.97
2022-12-28T18:04:27.485Z,6.47
2022-12-28T18:06:55.767Z,6.13
2022-12-28T18:09:27.952Z,6.13
2022-12-28T18:11:56.773Z,7.00
2022-12-28T18:14:25.081Z,6.50
2022-12-28T18:16:53.298Z,6.93
2022-12-28T18:19:21.685Z,6.43
2022-12-28T18:21:51.530Z,7.43
2022-12-28T18:24:21.130Z,7.90
2022-12-28T18:26:49.924Z,9.90
2022-12-28T18:29:18.264Z,10.75
2022-12-28T18:31:46.752Z,12.18
2022-12-28T18:34:15.361Z,9.30
2022-12-28T18:36:43.690Z,10.90
2022-12-28T18:39:13.618Z,11.73
2022-12-28T18:41:41.892Z,11.50
2022-12-28T18:44:10.499Z,11.35
2022-12-28T18:46:38.882Z,11.80
2022-12-28T18:49:07.100Z,11.57
2022-12-28T18:51:35.389Z,11.40
2022-12-28T18:54:03.730Z,12.65
2022-12-28T18:56:33.802Z,10.48
2022-12-28T18:59:02.072Z,9.73
2022-12-28T19:02:05.334Z,9.90
2022-12-28T19:04:19.387Z,8.68
2022-12-28T19:06:48.092Z,8.20
2022-12-28T19:09:16.378Z,8.88
2022-12-28T19:11:46.196Z,8.20
2022-12-28T19:14:16.962Z,8.18
2022-12-28T19:16:45.382Z,10.23
2022-12-28T19:19:13.737Z,8.52
2022-12-28T19:21:43.380Z,7.43
2022-12-28T19:24:14.629Z,8.68
2022-12-28T19:26:42.953Z,12.60
2022-12-28T19:29:15.554Z,12.05
2022-12-28T19:31:43.920Z,11.88
2022-12-28T19:34:12.199Z,12.60
2022-12-28T19:36:40.456Z,11.90
2022-12-28T19:39:08.748Z,11.27
2022-12-28T19:41:36.919Z,12.65
2022-12-28T19:44:05.570Z,10.77
2022-12-28T19:46:35.350Z,11.48
2022-12-28T19:49:05.408Z,11.65
2022-12-28T19:51:34.083Z,9.65
2022-12-28T19:54:02.576Z,10.77
2022-12-28T19:56:31.063Z,11.13
2022-12-28T19:59:06.121Z,11.50
2022-12-28T20:01:39.273Z,10.48
2022-12-28T20:04:13.626Z,10.35
2022-12-28T20:06:43.017Z,10.55
2022-12-28T20:09:11.984Z,9.85
2022-12-28T20:11:40.709Z,9.82
2022-12-28T20:14:11.953Z,9.02
2022-12-28T20:16:42.080Z,9.57
2022-12-28T20:19:11.833Z,10.05
2022-12-28T20:21:41.586Z,10.38
2022-12-28T20:24:11.902Z,10.70
2022-12-28T20:26:40.106Z,11.75
2022-12-28T20:29:08.395Z,10.82
2022-12-28T20:31:36.608Z,9.65
2022-12-28T20:34:06.451Z,10.77
2022-12-28T20:36:35.265Z,11.63
2022-12-28T20:39:03.937Z,11.77
2022-12-28T20:41:53.207Z,13.32
2022-12-28T20:44:26.054Z,13.07
2022-12-28T20:46:54.981Z,12.18
2022-12-28T20:49:26.328Z,12.00
2022-12-28T20:51:55.311Z,11.00
2022-12-28T20:54:24.440Z,11.73
2022-12-28T20:56:55.927Z,12.00
2022-12-28T20:59:25.767Z,12.10
2022-12-28T21:01:54.894Z,13.18
2022-12-28T21:04:25.889Z,12.60
2022-12-28T21:06:54.686Z,12.65
2022-12-28T21:09:23.312Z,11.85
2022-12-28T21:11:52.052Z,12.35
2022-12-28T21:14:20.393Z,14.52
2022-12-28T21:16:48.873Z,11.98
2022-12-28T21:19:17.158Z,13.05
2022-12-28T21:21:47.430Z,13.52
2022-12-28T21:24:15.838Z,13.25
2022-12-28T21:26:44.068Z,13.30
2022-12-28T21:29:12.325Z,14.95
2022-12-28T21:31:40.581Z,13.45
2022-12-28T21:34:08.903Z,13.80
2022-12-28T21:36:37.041Z,14.60
2022-12-28T21:39:06.816Z,13.23
2022-12-28T21:41:50.141Z,12.75
2022-12-28T21:44:20.801Z,12.18
2022-12-28T21:46:51.543Z,13.68
2022-12-28T21:49:20.597Z,13.63
2022-12-28T21:51:48.847Z,13.73
2022-12-28T21:54:20.250Z,16.60
2022-12-28T21:56:51.574Z,16.42
2022-12-28T21:59:20.123Z,16.10
2022-12-28T22:02:05.808Z,14.10
2022-12-28T22:04:54.394Z,11.65
2022-12-28T22:07:26.820Z,11.60
2022-12-28T22:10:13.735Z,13.65
2022-12-28T22:12:41.941Z,12.80
2022-12-28T22:15:30.759Z,11.60
2022-12-28T22:18:00.715Z,11.32
2022-12-28T22:20:30.031Z,9.90
2022-12-28T22:23:00.457Z,10.70
2022-12-28T22:25:32.091Z,8.98
2022-12-28T22:28:00.851Z,10.55
2022-12-28T22:30:30.086Z,9.75
2022-12-28T22:32:58.751Z,10.68
2022-12-28T22:35:27.050Z,9.40
2022-12-28T22:37:55.259Z,9.80
2022-12-28T22:40:23.796Z,10.52
2022-12-28T22:42:53.596Z,10.48
2022-12-28T22:45:23.685Z,10.43
2022-12-28T22:47:55.303Z,9.05
2022-12-28T22:50:23.784Z,9.05
2022-12-28T22:52:51.929Z,9.57
2022-12-28T22:55:20.192Z,9.63
2022-12-28T22:57:48.498Z,10.30
2022-12-28T23:00:18.466Z,10.10
2022-12-28T23:02:46.996Z,9.27
2022-12-28T23:05:15.513Z,10.65
2022-12-28T23:07:43.693Z,8.70
2022-12-28T23:10:11.945Z,11.30
2022-12-28T23:12:40.208Z,9.38
2022-12-28T23:15:19.869Z,8.65
2022-12-28T23:17:50.367Z,9.40
2022-12-28T23:20:36.609Z,9.23
2022-12-28T23:23:22.366Z,9.82
2022-12-28T23:26:07.948Z,10.00
2022-12-28T23:28:37.094Z,9.85
2022-12-28T23:31:05.840Z,10.13
2022-12-28T23:33:36.884Z,9.70
2022-12-28T23:36:05.710Z,9.32
2022-12-28T23:38:34.401Z,10.52
2022-12-28T23:41:24.579Z,9.85
2022-12-28T23:43:52.755Z,9.65
2022-12-28T23:46:20.966Z,8.88
2022-12-28T23:48:50.711Z,9.32
2022-12-28T23:51:18.821Z,9.65
2022-12-28T23:53:46.936Z,8.25
2022-12-28T23:56:15.144Z,10.32
2022-12-28T23:58:43.332Z,8.25
